Terminal Aerodrome Forecast
Issued by NWS

Home | Current Version | Previous Version | Text Only | Print | Product List | Glossary On
Versions: 1 2 3 4 5 6 7 8 9 10 11 12 13 14 15 16 17 18 19 20
000
FTUS46 KPDT 141901 AAA
TAFALW
TAF AMD
KALW 141901Z 1419/1518 24003KT P6SM FEW008 OVC014
     FM150300 VRB03KT 6SM BR OVC010
     FM151200 19003KT 3SM BR OVC004=

USA.gov is the U.S. government's official web portal to all federal, state and local government web resources and services.